METAR :
WARR 192030Z 27003KT 7000 FEW020 27/25 Q1006 NOSIG

SPECI :

SPECI WARR 181610Z 04009KT 4000 TSRA SCT019CB 27/26 Q1010 TEMPO TL1700 2000 TSRA=

TAFOR :